sensor_id;sensor_type;location;lat;lon;timestamp;pressure;altitude;pressure_sealevel;temperature;humidity
62458;BME280;48509;52.122;5.250;2023-09-19T00:01:06;100643.0;;;16.21;100.0
62458;BME280;48509;52.122;5.250;2023-09-19T00:02:43;100648.0;;;16.11;100.0
62458;BME280;48509;52.122;5.250;2023-09-19T00:05:57;100648.0;;;16.2;100.0
62458;BME280;48509;52.122;5.250;2023-09-19T00:07:33;100651.0;;;16.13;100.0
62458;BME280;48509;52.122;5.250;2023-09-19T00:09:09;100655.0;;;16.02;100.0
62458;BME280;48509;52.122;5.250;2023-09-19T00:10:45;100659.0;;;16.14;100.0
62458;BME280;48509;52.122;5.250;2023-09-19T00:13:57;100663.0;;;16.09;100.0
62458;BME280;48509;52.122;5.250;2023-09-19T00:15:36;100663.0;;;16.02;100.0
62458;BME280;48509;52.122;5.250;2023-09-19T00:17:15;100662.0;;;15.96;100.0
62458;BME280;48509;52.122;5.250;2023-09-19T00:20:27;100665.0;;;16.05;100.0
62458;BME280;48509;52.122;5.250;2023-09-19T00:22:03;100662.0;;;16.06;100.0
62458;BME280;48509;52.122;5.250;2023-09-19T00:23:39;100662.0;;;16.15;100.0
62458;BME280;48509;52.122;5.250;2023-09-19T00:25:15;100663.0;;;16.21;100.0
62458;BME280;48509;52.122;5.250;2023-09-19T00:28:27;100665.0;;;16.25;100.0
62458;BME280;48509;52.122;5.250;2023-09-19T00:30:05;100667.0;;;16.18;100.0
62458;BME280;48509;52.122;5.250;2023-09-19T00:31:43;100669.0;;;16.22;100.0
62458;BME280;48509;52.122;5.250;2023-09-19T00:34:55;100671.0;;;16.28;100.0
62458;BME280;48509;52.122;5.250;2023-09-19T00:36:31;100674.0;;;16.27;100.0
62458;BME280;48509;52.122;5.250;2023-09-19T00:38:07;100673.0;;;16.39;100.0
62458;BME280;48509;52.122;5.250;2023-09-19T00:41:19;100674.0;;;16.34;100.0
62458;BME280;48509;52.122;5.250;2023-09-19T00:42:57;100680.0;;;16.38;100.0
62458;BME280;48509;52.122;5.250;2023-09-19T00:44:33;100676.0;;;16.38;100.0
62458;BME280;48509;52.122;5.250;2023-09-19T00:47:48;100676.0;;;16.25;100.0
62458;BME280;48509;52.122;5.250;2023-09-19T00:49:24;100678.0;;;16.23;100.0
62458;BME280;48509;52.122;5.250;2023-09-19T00:51:02;100684.0;;;16.14;100.0
62458;BME280;48509;52.122;5.250;2023-09-19T00:52:40;100680.0;;;16.12;100.0
62458;BME280;48509;52.122;5.250;2023-09-19T00:55:54;100683.0;;;16.21;100.0
62458;BME280;48509;52.122;5.250;2023-09-19T00:57:31;100685.0;;;16.2;100.0
62458;BME280;48509;52.122;5.250;2023-09-19T00:59:08;100689.0;;;16.28;100.0
62458;BME280;48509;52.122;5.250;2023-09-19T01:02:21;100692.0;;;16.32;100.0
62458;BME280;48509;52.122;5.250;2023-09-19T01:03:57;100692.0;;;16.23;100.0
62458;BME280;48509;52.122;5.250;2023-09-19T01:05:33;100689.0;;;16.32;100.0
62458;BME280;48509;52.122;5.250;2023-09-19T01:07:10;100692.0;;;16.34;100.0
62458;BME280;48509;52.122;5.250;2023-09-19T01:10:22;100691.0;;;16.32;100.0
62458;BME280;48509;52.122;5.250;2023-09-19T01:12:01;100694.0;;;16.18;100.0
62458;BME280;48509;52.122;5.250;2023-09-19T01:13:55;100692.0;;;16.16;100.0
62458;BME280;48509;52.122;5.250;2023-09-19T01:15:42;100696.0;;;16.04;100.0
62458;BME280;48509;52.122;5.250;2023-09-19T01:19:48;100694.0;;;16.11;100.0
62458;BME280;48509;52.122;5.250;2023-09-19T01:21:38;100691.0;;;16.13;100.0
62458;BME280;48509;52.122;5.250;2023-09-19T01:23:25;100694.0;;;16.11;100.0
62458;BME280;48509;52.122;5.250;2023-09-19T01:25:25;100690.0;;;16.07;100.0
62458;BME280;48509;52.122;5.250;2023-09-19T01:27:27;100700.0;;;16.09;100.0
62458;BME280;48509;52.122;5.250;2023-09-19T01:29:26;100699.0;;;16.2;100.0
62458;BME280;48509;52.122;5.250;2023-09-19T01:31:09;100698.0;;;16.11;100.0
62458;BME280;48509;52.122;5.250;2023-09-19T01:32:47;100697.0;;;16.09;100.0
62458;BME280;48509;52.122;5.250;2023-09-19T01:34:25;100687.0;;;16.18;100.0
62458;BME280;48509;52.122;5.250;2023-09-19T01:37:37;100693.0;;;16.21;100.0
62458;BME280;48509;52.122;5.250;2023-09-19T01:39:14;100697.0;;;16.06;100.0
62458;BME280;48509;52.122;5.250;2023-09-19T01:41:00;100699.0;;;16.09;100.0
62458;BME280;48509;52.122;5.250;2023-09-19T01:42:43;100702.0;;;16.04;100.0
62458;BME280;48509;52.122;5.250;2023-09-19T01:46:21;100701.0;;;15.98;100.0
62458;BME280;48509;52.122;5.250;2023-09-19T01:48:08;100709.0;;;15.98;100.0
62458;BME280;48509;52.122;5.250;2023-09-19T01:50:05;100712.0;;;15.93;100.0
62458;BME280;48509;52.122;5.250;2023-09-19T01:51:53;100713.0;;;16.05;100.0
62458;BME280;48509;52.122;5.250;2023-09-19T01:53:41;100715.0;;;16.03;100.0
62458;BME280;48509;52.122;5.250;2023-09-19T01:55:20;100714.0;;;16.07;100.0
62458;BME280;48509;52.122;5.250;2023-09-19T01:58:45;100716.0;;;16.13;100.0
62458;BME280;48509;52.122;5.250;2023-09-19T02:00:25;100717.0;;;16.09;100.0
62458;BME280;48509;52.122;5.250;2023-09-19T02:02:04;100711.0;;;15.95;100.0
62458;BME280;48509;52.122;5.250;2023-09-19T02:03:43;100711.0;;;16.09;100.0
62458;BME280;48509;52.122;5.250;2023-09-19T02:07:00;100713.0;;;16.09;100.0
62458;BME280;48509;52.122;5.250;2023-09-19T02:08:37;100713.0;;;16.09;100.0
62458;BME280;48509;52.122;5.250;2023-09-19T02:10:13;100709.0;;;16.15;100.0
62458;BME280;48509;52.122;5.250;2023-09-19T02:13:26;100705.0;;;16.14;100.0
62458;BME280;48509;52.122;5.250;2023-09-19T02:15:02;100701.0;;;16.13;100.0
62458;BME280;48509;52.122;5.250;2023-09-19T02:16:38;100701.0;;;16.18;100.0
62458;BME280;48509;52.122;5.250;2023-09-19T02:18:14;100701.0;;;16.09;100.0
62458;BME280;48509;52.122;5.250;2023-09-19T02:21:26;100706.0;;;16.11;100.0
62458;BME280;48509;52.122;5.250;2023-09-19T02:23:03;100709.0;;;16.09;100.0
62458;BME280;48509;52.122;5.250;2023-09-19T02:24:39;100714.0;;;16.09;100.0
62458;BME280;48509;52.122;5.250;2023-09-19T02:27:51;100714.0;;;16.13;100.0
62458;BME280;48509;52.122;5.250;2023-09-19T02:29:28;100715.0;;;16.13;100.0
62458;BME280;48509;52.122;5.250;2023-09-19T02:31:04;100715.0;;;16.23;100.0
62458;BME280;48509;52.122;5.250;2023-09-19T02:34:16;100715.0;;;16.15;100.0
62458;BME280;48509;52.122;5.250;2023-09-19T02:35:54;100712.0;;;16.21;100.0
62458;BME280;48509;52.122;5.250;2023-09-19T02:37:31;100719.0;;;16.27;100.0
62458;BME280;48509;52.122;5.250;2023-09-19T02:39:07;100723.0;;;16.16;100.0
62458;BME280;48509;52.122;5.250;2023-09-19T02:42:19;100716.0;;;16.16;100.0
62458;BME280;48509;52.122;5.250;2023-09-19T02:43:55;100723.0;;;16.22;100.0
62458;BME280;48509;52.122;5.250;2023-09-19T02:45:31;100723.0;;;16.23;100.0
62458;BME280;48509;52.122;5.250;2023-09-19T02:48:44;100718.0;;;15.94;100.0
62458;BME280;48509;52.122;5.250;2023-09-19T02:50:20;100719.0;;;16.02;100.0
62458;BME280;48509;52.122;5.250;2023-09-19T02:51:56;100723.0;;;16.04;100.0
62458;BME280;48509;52.122;5.250;2023-09-19T02:55:09;100724.0;;;15.96;100.0
62458;BME280;48509;52.122;5.250;2023-09-19T02:56:44;100730.0;;;16.03;100.0
62458;BME280;48509;52.122;5.250;2023-09-19T02:58:20;100733.0;;;16.18;100.0
62458;BME280;48509;52.122;5.250;2023-09-19T03:01:33;100728.0;;;16.12;100.0
62458;BME280;48509;52.122;5.250;2023-09-19T03:03:09;100730.0;;;16.12;100.0
62458;BME280;48509;52.122;5.250;2023-09-19T03:04:45;100727.0;;;16.18;100.0
62458;BME280;48509;52.122;5.250;2023-09-19T03:06:21;100720.0;;;16.12;100.0
62458;BME280;48509;52.122;5.250;2023-09-19T03:09:33;100719.0;;;16.02;100.0
62458;BME280;48509;52.122;5.250;2023-09-19T03:11:09;100716.0;;;15.95;100.0
62458;BME280;48509;52.122;5.250;2023-09-19T03:12:45;100716.0;;;15.94;100.0
62458;BME280;48509;52.122;5.250;2023-09-19T03:15:58;100717.0;;;16.02;100.0
62458;BME280;48509;52.122;5.250;2023-09-19T03:17:34;100714.0;;;15.82;100.0
62458;BME280;48509;52.122;5.250;2023-09-19T03:19:10;100714.0;;;15.92;100.0
62458;BME280;48509;52.122;5.250;2023-09-19T03:22:28;100712.0;;;15.77;100.0
62458;BME280;48509;52.122;5.250;2023-09-19T03:24:04;100717.0;;;15.69;100.0
62458;BME280;48509;52.122;5.250;2023-09-19T03:25:40;100715.0;;;15.88;100.0
62458;BME280;48509;52.122;5.250;2023-09-19T03:27:16;100721.0;;;15.8;100.0
62458;BME280;48509;52.122;5.250;2023-09-19T03:30:28;100718.0;;;15.85;100.0
62458;BME280;48509;52.122;5.250;2023-09-19T03:32:05;100724.0;;;15.74;100.0
62458;BME280;48509;52.122;5.250;2023-09-19T03:33:42;100718.0;;;15.68;100.0
62458;BME280;48509;52.122;5.250;2023-09-19T03:36:55;100721.0;;;15.81;100.0
62458;BME280;48509;52.122;5.250;2023-09-19T03:40:09;100712.0;;;15.69;100.0
62458;BME280;48509;52.122;5.250;2023-09-19T03:43:21;100712.0;;;15.74;100.0
62458;BME280;48509;52.122;5.250;2023-09-19T03:44:57;100714.0;;;15.67;100.0
62458;BME280;48509;52.122;5.250;2023-09-19T03:46:33;100708.0;;;15.63;100.0
62458;BME280;48509;52.122;5.250;2023-09-19T03:48:10;100712.0;;;15.56;100.0
62458;BME280;48509;52.122;5.250;2023-09-19T03:51:22;100716.0;;;15.69;100.0
62458;BME280;48509;52.122;5.250;2023-09-19T03:52:58;100714.0;;;15.64;100.0
62458;BME280;48509;52.122;5.250;2023-09-19T03:54:34;100709.0;;;15.73;100.0
62458;BME280;48509;52.122;5.250;2023-09-19T03:57:47;100717.0;;;15.74;100.0
62458;BME280;48509;52.122;5.250;2023-09-19T03:59:24;100721.0;;;15.6;100.0
62458;BME280;48509;52.122;5.250;2023-09-19T04:01:00;100730.0;;;15.63;100.0
62458;BME280;48509;52.122;5.250;2023-09-19T04:04:13;100730.0;;;15.46;100.0
62458;BME280;48509;52.122;5.250;2023-09-19T04:05:49;100737.0;;;15.57;100.0
62458;BME280;48509;52.122;5.250;2023-09-19T04:07:26;100740.0;;;15.62;100.0
62458;BME280;48509;52.122;5.250;2023-09-19T04:10:41;100744.0;;;15.59;100.0
62458;BME280;48509;52.122;5.250;2023-09-19T04:12:18;100747.0;;;15.68;99.76
62458;BME280;48509;52.122;5.250;2023-09-19T04:13:54;100750.0;;;15.7;100.0
62458;BME280;48509;52.122;5.250;2023-09-19T04:15:30;100744.0;;;15.65;99.86
62458;BME280;48509;52.122;5.250;2023-09-19T04:18:42;100751.0;;;15.55;99.48
62458;BME280;48509;52.122;5.250;2023-09-19T04:20:19;100755.0;;;15.56;99.77
62458;BME280;48509;52.122;5.250;2023-09-19T04:21:55;100753.0;;;15.43;100.0
62458;BME280;48509;52.122;5.250;2023-09-19T04:25:07;100762.0;;;15.55;100.0
62458;BME280;48509;52.122;5.250;2023-09-19T04:26:43;100769.0;;;15.59;99.29
62458;BME280;48509;52.122;5.250;2023-09-19T04:28:19;100771.0;;;15.7;98.57
62458;BME280;48509;52.122;5.250;2023-09-19T04:31:31;100774.0;;;15.63;98.58
62458;BME280;48509;52.122;5.250;2023-09-19T04:33:07;100771.0;;;15.65;99.35
62458;BME280;48509;52.122;5.250;2023-09-19T04:34:43;100775.0;;;15.76;98.77
62458;BME280;48509;52.122;5.250;2023-09-19T04:36:19;100780.0;;;15.5;97.81
62458;BME280;48509;52.122;5.250;2023-09-19T04:39:32;100782.0;;;15.59;98.29
62458;BME280;48509;52.122;5.250;2023-09-19T04:41:08;100780.0;;;15.7;97.49
62458;BME280;48509;52.122;5.250;2023-09-19T04:42:44;100783.0;;;15.73;98.2
62458;BME280;48509;52.122;5.250;2023-09-19T04:45:56;100784.0;;;15.62;97.91
62458;BME280;48509;52.122;5.250;2023-09-19T04:47:32;100787.0;;;15.76;98.66
62458;BME280;48509;52.122;5.250;2023-09-19T04:49:08;100780.0;;;15.58;98.39
62458;BME280;48509;52.122;5.250;2023-09-19T04:52:21;100784.0;;;15.59;99.46
62458;BME280;48509;52.122;5.250;2023-09-19T04:53:57;100784.0;;;15.59;98.78
62458;BME280;48509;52.122;5.250;2023-09-19T04:55:33;100776.0;;;15.48;100.0
62458;BME280;48509;52.122;5.250;2023-09-19T04:58:45;100784.0;;;15.73;99.26
62458;BME280;48509;52.122;5.250;2023-09-19T05:00:22;100780.0;;;15.57;98.82
62458;BME280;48509;52.122;5.250;2023-09-19T05:01:58;100780.0;;;15.63;99.34
62458;BME280;48509;52.122;5.250;2023-09-19T05:03:34;100782.0;;;15.77;99.06
62458;BME280;48509;52.122;5.250;2023-09-19T05:06:47;100794.0;;;15.72;100.0
62458;BME280;48509;52.122;5.250;2023-09-19T05:08:23;100785.0;;;15.62;100.0
62458;BME280;48509;52.122;5.250;2023-09-19T05:10:00;100790.0;;;15.7;100.0
62458;BME280;48509;52.122;5.250;2023-09-19T05:13:12;100783.0;;;15.75;99.9
62458;BME280;48509;52.122;5.250;2023-09-19T05:14:48;100786.0;;;15.63;100.0
62458;BME280;48509;52.122;5.250;2023-09-19T05:16:24;100789.0;;;15.66;99.8
62458;BME280;48509;52.122;5.250;2023-09-19T05:19:36;100789.0;;;15.57;100.0
62458;BME280;48509;52.122;5.250;2023-09-19T05:21:12;100787.0;;;15.62;100.0
62458;BME280;48509;52.122;5.250;2023-09-19T05:22:48;100782.0;;;15.49;100.0
62458;BME280;48509;52.122;5.250;2023-09-19T05:24:24;100780.0;;;15.55;100.0
62458;BME280;48509;52.122;5.250;2023-09-19T05:27:36;100786.0;;;15.54;100.0
62458;BME280;48509;52.122;5.250;2023-09-19T05:29:12;100786.0;;;15.37;100.0
62458;BME280;48509;52.122;5.250;2023-09-19T05:30:48;100785.0;;;15.41;100.0
62458;BME280;48509;52.122;5.250;2023-09-19T05:34:00;100782.0;;;15.39;100.0
62458;BME280;48509;52.122;5.250;2023-09-19T05:35:36;100780.0;;;15.31;100.0
62458;BME280;48509;52.122;5.250;2023-09-19T05:37:12;100781.0;;;15.53;100.0
62458;BME280;48509;52.122;5.250;2023-09-19T05:40:25;100780.0;;;15.6;100.0
62458;BME280;48509;52.122;5.250;2023-09-19T05:42:02;100786.0;;;15.54;100.0
62458;BME280;48509;52.122;5.250;2023-09-19T05:43:38;100790.0;;;15.52;100.0
62458;BME280;48509;52.122;5.250;2023-09-19T05:46:50;100780.0;;;15.52;100.0
62458;BME280;48509;52.122;5.250;2023-09-19T05:48:26;100784.0;;;15.58;100.0
62458;BME280;48509;52.122;5.250;2023-09-19T05:50:03;100786.0;;;15.55;100.0
62458;BME280;48509;52.122;5.250;2023-09-19T05:51:38;100793.0;;;15.51;100.0
62458;BME280;48509;52.122;5.250;2023-09-19T05:54:50;100797.0;;;15.66;100.0
62458;BME280;48509;52.122;5.250;2023-09-19T05:56:27;100795.0;;;15.78;100.0
62458;BME280;48509;52.122;5.250;2023-09-19T05:58:03;100799.0;;;15.76;100.0
62458;BME280;48509;52.122;5.250;2023-09-19T06:01:15;100799.0;;;15.8;100.0
62458;BME280;48509;52.122;5.250;2023-09-19T06:02:51;100798.0;;;15.79;100.0
62458;BME280;48509;52.122;5.250;2023-09-19T06:04:27;100803.0;;;15.8;100.0
62458;BME280;48509;52.122;5.250;2023-09-19T06:07:39;100812.0;;;16.02;100.0
62458;BME280;48509;52.122;5.250;2023-09-19T06:09:15;100817.0;;;15.78;100.0
62458;BME280;48509;52.122;5.250;2023-09-19T06:10:51;100816.0;;;15.85;100.0
62458;BME280;48509;52.122;5.250;2023-09-19T06:14:04;100809.0;;;15.84;100.0
62458;BME280;48509;52.122;5.250;2023-09-19T06:15:40;100812.0;;;16.02;100.0
62458;BME280;48509;52.122;5.250;2023-09-19T06:17:16;100822.0;;;15.94;100.0
62458;BME280;48509;52.122;5.250;2023-09-19T06:18:52;100823.0;;;15.99;100.0
62458;BME280;48509;52.122;5.250;2023-09-19T06:22:04;100819.0;;;15.87;100.0
62458;BME280;48509;52.122;5.250;2023-09-19T06:23:40;100820.0;;;15.87;100.0
62458;BME280;48509;52.122;5.250;2023-09-19T06:25:17;100821.0;;;15.9;100.0
62458;BME280;48509;52.122;5.250;2023-09-19T06:28:29;100820.0;;;16.11;100.0
62458;BME280;48509;52.122;5.250;2023-09-19T06:30:07;100816.0;;;16.07;100.0
62458;BME280;48509;52.122;5.250;2023-09-19T06:31:43;100824.0;;;16.04;100.0
62458;BME280;48509;52.122;5.250;2023-09-19T06:34:55;100817.0;;;16.09;100.0
62458;BME280;48509;52.122;5.250;2023-09-19T06:36:31;100812.0;;;16.2;100.0
62458;BME280;48509;52.122;5.250;2023-09-19T06:38:07;100809.0;;;16.2;100.0
62458;BME280;48509;52.122;5.250;2023-09-19T06:39:43;100812.0;;;16.21;100.0
62458;BME280;48509;52.122;5.250;2023-09-19T06:42:55;100810.0;;;16.23;100.0
62458;BME280;48509;52.122;5.250;2023-09-19T06:44:32;100812.0;;;16.23;100.0
62458;BME280;48509;52.122;5.250;2023-09-19T06:46:08;100812.0;;;16.2;100.0
62458;BME280;48509;52.122;5.250;2023-09-19T06:49:20;100815.0;;;16.27;100.0
62458;BME280;48509;52.122;5.250;2023-09-19T06:50:57;100811.0;;;16.43;100.0
62458;BME280;48509;52.122;5.250;2023-09-19T06:52:33;100819.0;;;16.45;100.0
62458;BME280;48509;52.122;5.250;2023-09-19T06:55:45;100818.0;;;16.37;100.0
62458;BME280;48509;52.122;5.250;2023-09-19T06:57:21;100820.0;;;16.3;100.0
62458;BME280;48509;52.122;5.250;2023-09-19T06:58:57;100817.0;;;16.25;100.0
62458;BME280;48509;52.122;5.250;2023-09-19T07:02:10;100814.0;;;16.29;100.0
62458;BME280;48509;52.122;5.250;2023-09-19T07:03:46;100815.0;;;16.47;100.0
62458;BME280;48509;52.122;5.250;2023-09-19T07:05:22;100817.0;;;16.45;100.0
62458;BME280;48509;52.122;5.250;2023-09-19T07:06:58;100821.0;;;16.5;100.0
62458;BME280;48509;52.122;5.250;2023-09-19T07:10:10;100810.0;;;16.36;100.0
62458;BME280;48509;52.122;5.250;2023-09-19T07:11:46;100815.0;;;16.48;100.0
62458;BME280;48509;52.122;5.250;2023-09-19T07:13:22;100811.0;;;16.45;100.0
62458;BME280;48509;52.122;5.250;2023-09-19T07:16:34;100816.0;;;16.53;100.0
62458;BME280;48509;52.122;5.250;2023-09-19T07:18:11;100815.0;;;16.47;100.0
62458;BME280;48509;52.122;5.250;2023-09-19T07:19:47;100827.0;;;16.57;100.0
62458;BME280;48509;52.122;5.250;2023-09-19T07:22:59;100830.0;;;16.59;100.0
62458;BME280;48509;52.122;5.250;2023-09-19T07:24:35;100833.0;;;16.7;100.0
62458;BME280;48509;52.122;5.250;2023-09-19T07:26:11;100836.0;;;16.61;100.0
62458;BME280;48509;52.122;5.250;2023-09-19T07:29:23;100838.0;;;16.64;100.0
62458;BME280;48509;52.122;5.250;2023-09-19T07:31:01;100839.0;;;16.77;100.0
62458;BME280;48509;52.122;5.250;2023-09-19T07:32:38;100842.0;;;16.75;100.0
62458;BME280;48509;52.122;5.250;2023-09-19T07:34:14;100848.0;;;16.82;100.0
62458;BME280;48509;52.122;5.250;2023-09-19T07:37:26;100852.0;;;16.86;100.0
62458;BME280;48509;52.122;5.250;2023-09-19T07:39:02;100842.0;;;16.78;100.0
62458;BME280;48509;52.122;5.250;2023-09-19T07:40:38;100841.0;;;16.86;100.0
62458;BME280;48509;52.122;5.250;2023-09-19T07:43:51;100842.0;;;16.86;100.0
62458;BME280;48509;52.122;5.250;2023-09-19T07:45:27;100840.0;;;17.02;99.63
62458;BME280;48509;52.122;5.250;2023-09-19T07:47:03;100843.0;;;17.06;99.27
62458;BME280;48509;52.122;5.250;2023-09-19T07:50:17;100847.0;;;17.18;99.41
62458;BME280;48509;52.122;5.250;2023-09-19T07:51:53;100846.0;;;17.28;99.25
62458;BME280;48509;52.122;5.250;2023-09-19T07:53:29;100851.0;;;17.27;98.92
62458;BME280;48509;52.122;5.250;2023-09-19T07:55:05;100846.0;;;17.16;98.67
62458;BME280;48509;52.122;5.250;2023-09-19T07:58:18;100849.0;;;17.18;99.04
62458;BME280;48509;52.122;5.250;2023-09-19T07:59:54;100847.0;;;17.27;100.0
62458;BME280;48509;52.122;5.250;2023-09-19T08:01:30;100850.0;;;17.31;98.72
62458;BME280;48509;52.122;5.250;2023-09-19T08:04:43;100858.0;;;17.36;98.3
62458;BME280;48509;52.122;5.250;2023-09-19T08:06:19;100855.0;;;17.3;97.99
62458;BME280;48509;52.122;5.250;2023-09-19T08:07:55;100853.0;;;17.37;98.1
62458;BME280;48509;52.122;5.250;2023-09-19T08:11:07;100852.0;;;17.32;98.03
62458;BME280;48509;52.122;5.250;2023-09-19T08:12:43;100857.0;;;17.52;96.77
62458;BME280;48509;52.122;5.250;2023-09-19T08:14:19;100857.0;;;17.46;97.86
62458;BME280;48509;52.122;5.250;2023-09-19T08:15:55;100849.0;;;17.52;96.63
62458;BME280;48509;52.122;5.250;2023-09-19T08:19:10;100855.0;;;17.57;97.08
62458;BME280;48509;52.122;5.250;2023-09-19T08:20:49;100848.0;;;17.66;97.6
62458;BME280;48509;52.122;5.250;2023-09-19T08:22:26;100846.0;;;17.7;96.11
62458;BME280;48509;52.122;5.250;2023-09-19T08:25:38;100843.0;;;17.81;96.22
62458;BME280;48509;52.122;5.250;2023-09-19T08:27:14;100843.0;;;17.89;96.23
62458;BME280;48509;52.122;5.250;2023-09-19T08:28:50;100840.0;;;17.86;95.83
62458;BME280;48509;52.122;5.250;2023-09-19T08:32:03;100836.0;;;17.86;96.18
62458;BME280;48509;52.122;5.250;2023-09-19T08:33:39;100837.0;;;17.68;95.83
62458;BME280;48509;52.122;5.250;2023-09-19T08:35:15;100834.0;;;17.78;97.43
62458;BME280;48509;52.122;5.250;2023-09-19T08:36:52;100845.0;;;18.0;96.09
62458;BME280;48509;52.122;5.250;2023-09-19T08:40:05;100839.0;;;17.8;96.38
62458;BME280;48509;52.122;5.250;2023-09-19T08:41:42;100837.0;;;17.84;95.98
62458;BME280;48509;52.122;5.250;2023-09-19T08:43:21;100835.0;;;17.86;95.84
62458;BME280;48509;52.122;5.250;2023-09-19T08:46:37;100837.0;;;17.89;95.06
62458;BME280;48509;52.122;5.250;2023-09-19T08:48:22;100833.0;;;17.89;94.18
62458;BME280;48509;52.122;5.250;2023-09-19T08:50:04;100836.0;;;18.0;94.64
62458;BME280;48509;52.122;5.250;2023-09-19T08:51:48;100837.0;;;18.04;95.08
62458;BME280;48509;52.122;5.250;2023-09-19T08:55:18;100841.0;;;18.05;93.39
62458;BME280;48509;52.122;5.250;2023-09-19T08:56:56;100841.0;;;17.91;93.56
62458;BME280;48509;52.122;5.250;2023-09-19T08:58:44;100837.0;;;17.95;94.04
62458;BME280;48509;52.122;5.250;2023-09-19T09:00:28;100838.0;;;18.11;93.49
62458;BME280;48509;52.122;5.250;2023-09-19T09:02:04;100839.0;;;18.2;93.66
62458;BME280;48509;52.122;5.250;2023-09-19T09:05:23;100834.0;;;18.05;92.02
62458;BME280;48509;52.122;5.250;2023-09-19T09:07:01;100833.0;;;18.11;91.84
62458;BME280;48509;52.122;5.250;2023-09-19T09:08:38;100848.0;;;18.22;90.9
62458;BME280;48509;52.122;5.250;2023-09-19T09:11:52;100839.0;;;18.27;90.7
62458;BME280;48509;52.122;5.250;2023-09-19T09:13:30;100843.0;;;18.34;89.77
62458;BME280;48509;52.122;5.250;2023-09-19T09:15:06;100833.0;;;18.37;90.04
62458;BME280;48509;52.122;5.250;2023-09-19T09:16:43;100835.0;;;18.45;90.58
62458;BME280;48509;52.122;5.250;2023-09-19T09:19:56;100838.0;;;18.64;90.11
62458;BME280;48509;52.122;5.250;2023-09-19T09:21:31;100833.0;;;18.68;86.91
62458;BME280;48509;52.122;5.250;2023-09-19T09:23:07;100825.0;;;18.71;87.98
62458;BME280;48509;52.122;5.250;2023-09-19T09:26:41;100818.0;;;18.72;88.72
62458;BME280;48509;52.122;5.250;2023-09-19T09:28:21;100830.0;;;18.64;87.95
62458;BME280;48509;52.122;5.250;2023-09-19T09:29:58;100827.0;;;18.78;87.84
62458;BME280;48509;52.122;5.250;2023-09-19T09:31:34;100823.0;;;18.88;87.12
62458;BME280;48509;52.122;5.250;2023-09-19T09:34:50;100822.0;;;18.97;88.62
62458;BME280;48509;52.122;5.250;2023-09-19T09:36:37;100830.0;;;18.93;87.16
62458;BME280;48509;52.122;5.250;2023-09-19T09:38:15;100826.0;;;18.79;87.49
62458;BME280;48509;52.122;5.250;2023-09-19T09:39:53;100811.0;;;18.84;86.92
62458;BME280;48509;52.122;5.250;2023-09-19T09:43:26;100815.0;;;18.93;87.59
62458;BME280;48509;52.122;5.250;2023-09-19T09:45:20;100816.0;;;18.81;86.95
62458;BME280;48509;52.122;5.250;2023-09-19T09:46:56;100808.0;;;18.96;88.28
62458;BME280;48509;52.122;5.250;2023-09-19T09:48:32;100811.0;;;19.02;87.06
62458;BME280;48509;52.122;5.250;2023-09-19T09:50:08;100819.0;;;19.03;87.76
62458;BME280;48509;52.122;5.250;2023-09-19T09:53:27;100816.0;;;18.86;86.67
62458;BME280;48509;52.122;5.250;2023-09-19T09:55:04;100815.0;;;18.93;87.01
62458;BME280;48509;52.122;5.250;2023-09-19T09:56:56;100813.0;;;18.96;87.17
62458;BME280;48509;52.122;5.250;2023-09-19T09:58:33;100813.0;;;19.11;87.56
62458;BME280;48509;52.122;5.250;2023-09-19T10:01:47;100819.0;;;19.13;87.72
62458;BME280;48509;52.122;5.250;2023-09-19T10:03:31;100827.0;;;19.0;86.03
62458;BME280;48509;52.122;5.250;2023-09-19T10:05:13;100825.0;;;19.07;85.42
62458;BME280;48509;52.122;5.250;2023-09-19T10:06:50;100824.0;;;19.02;86.53
62458;BME280;48509;52.122;5.250;2023-09-19T10:10:04;100824.0;;;18.98;86.09
62458;BME280;48509;52.122;5.250;2023-09-19T10:11:42;100822.0;;;18.97;85.39
62458;BME280;48509;52.122;5.250;2023-09-19T10:13:20;100821.0;;;19.16;86.02
62458;BME280;48509;52.122;5.250;2023-09-19T10:16:40;100819.0;;;19.05;86.16
62458;BME280;48509;52.122;5.250;2023-09-19T10:18:20;100813.0;;;19.27;85.39
62458;BME280;48509;52.122;5.250;2023-09-19T10:19:56;100808.0;;;19.27;84.06
62458;BME280;48509;52.122;5.250;2023-09-19T10:21:33;100812.0;;;19.36;84.01
62458;BME280;48509;52.122;5.250;2023-09-19T10:24:49;100808.0;;;19.31;83.91
62458;BME280;48509;52.122;5.250;2023-09-19T10:26:27;100811.0;;;19.5;82.93
62458;BME280;48509;52.122;5.250;2023-09-19T10:28:05;100803.0;;;19.32;84.15
62458;BME280;48509;52.122;5.250;2023-09-19T10:31:21;100795.0;;;19.47;86.07
62458;BME280;48509;52.122;5.250;2023-09-19T10:33:01;100782.0;;;19.56;85.5
62458;BME280;48509;52.122;5.250;2023-09-19T10:34:39;100783.0;;;19.66;84.16
62458;BME280;48509;52.122;5.250;2023-09-19T10:36:17;100775.0;;;19.68;83.76
62458;BME280;48509;52.122;5.250;2023-09-19T10:39:32;100790.0;;;19.61;83.77
62458;BME280;48509;52.122;5.250;2023-09-19T10:41:10;100781.0;;;19.54;81.91
62458;BME280;48509;52.122;5.250;2023-09-19T10:42:49;100776.0;;;19.66;81.92
62458;BME280;48509;52.122;5.250;2023-09-19T10:46:08;100775.0;;;19.78;83.15
62458;BME280;48509;52.122;5.250;2023-09-19T10:47:44;100772.0;;;19.84;83.3
62458;BME280;48509;52.122;5.250;2023-09-19T10:49:20;100775.0;;;20.06;82.48
62458;BME280;48509;52.122;5.250;2023-09-19T10:51:02;100778.0;;;20.02;82.4
62458;BME280;48509;52.122;5.250;2023-09-19T10:54:20;100774.0;;;19.91;81.91
62458;BME280;48509;52.122;5.250;2023-09-19T10:55:59;100775.0;;;19.87;82.83
62458;BME280;48509;52.122;5.250;2023-09-19T10:57:37;100774.0;;;19.86;82.8
62458;BME280;48509;52.122;5.250;2023-09-19T10:59:15;100765.0;;;19.91;82.03
62458;BME280;48509;52.122;5.250;2023-09-19T11:02:30;100764.0;;;19.91;82.57
62458;BME280;48509;52.122;5.250;2023-09-19T11:04:21;100765.0;;;20.0;82.46
62458;BME280;48509;52.122;5.250;2023-09-19T11:06:01;100756.0;;;20.05;81.7
62458;BME280;48509;52.122;5.250;2023-09-19T11:07:56;100760.0;;;19.97;81.12